createdAt,value
2023-04-09T00:00:11.234Z,101933.84
2023-04-09T00:00:36.150Z,101930.28
2023-04-09T00:01:02.849Z,101931.19
2023-04-09T00:01:24.752Z,101936.50
2023-04-09T00:01:47.361Z,101930.34
2023-04-09T00:02:09.858Z,101933.91
2023-04-09T00:02:31.577Z,101927.72
2023-04-09T00:02:53.295Z,101930.41
2023-04-09T00:03:16.133Z,101925.13
2023-04-09T00:03:38.939Z,101936.66
2023-04-09T00:04:00.996Z,101926.88
2023-04-09T00:04:23.760Z,101924.31
2023-04-09T00:04:46.624Z,101897.09
2023-04-09T00:05:08.581Z,101926.03
2023-04-09T00:05:30.264Z,101934.88
2023-04-09T00:05:52.440Z,101933.94
2023-04-09T00:06:15.037Z,101924.31
2023-04-09T00:06:36.734Z,101878.63
2023-04-09T00:06:58.507Z,101919.03
2023-04-09T00:07:20.271Z,101919.91
2023-04-09T00:07:44.232Z,101931.34
2023-04-09T00:08:07.789Z,101929.56
2023-04-09T00:08:29.608Z,101930.47
2023-04-09T00:08:51.741Z,101929.66
2023-04-09T00:09:13.633Z,101892.72
2023-04-09T00:09:36.238Z,101926.09
2023-04-09T00:09:57.860Z,101925.22
2023-04-09T00:10:19.605Z,101925.16
2023-04-09T00:10:41.608Z,101929.66
2023-04-09T00:11:04.706Z,101926.97
2023-04-09T00:11:26.927Z,101925.22
2023-04-09T00:11:48.559Z,101907.66
2023-04-09T00:12:10.535Z,101929.59
2023-04-09T00:12:33.506Z,101930.47
2023-04-09T00:12:56.032Z,101926.91
2023-04-09T00:13:25.335Z,101926.03
2023-04-09T00:13:53.534Z,101933.13
2023-04-09T00:14:15.363Z,101928.78
2023-04-09T00:14:38.002Z,101934.09
2023-04-09T00:14:59.740Z,101927.88
2023-04-09T00:15:30.605Z,101903.28
2023-04-09T00:15:53.511Z,101928.75
2023-04-09T00:16:16.145Z,101919.91
2023-04-09T00:16:38.196Z,101898.03
2023-04-09T00:16:59.884Z,101924.31
2023-04-09T00:17:21.659Z,101926.09
2023-04-09T00:17:44.313Z,101922.50
2023-04-09T00:18:06.198Z,101929.66
2023-04-09T00:18:28.014Z,101924.31
2023-04-09T00:18:49.938Z,101931.44
2023-04-09T00:19:12.780Z,101925.25
2023-04-09T00:19:34.472Z,101924.31
2023-04-09T00:19:56.322Z,101918.31
2023-04-09T00:20:18.069Z,101902.41
2023-04-09T00:20:39.918Z,101923.44
2023-04-09T00:21:02.689Z,101930.47
2023-04-09T00:21:24.343Z,101925.22
2023-04-09T00:21:45.940Z,101927.81
2023-04-09T00:22:07.515Z,101907.72
2023-04-09T00:22:30.224Z,101926.13
2023-04-09T00:22:52.372Z,101924.34
2023-04-09T00:23:14.130Z,101930.59
2023-04-09T00:23:35.963Z,101910.31
2023-04-09T00:23:58.954Z,101924.41
2023-04-09T00:24:20.543Z,101919.97
2023-04-09T00:24:42.176Z,101925.31
2023-04-09T00:25:04.399Z,101917.34
2023-04-09T00:25:26.217Z,101922.63
2023-04-09T00:25:48.878Z,101926.16
2023-04-09T00:26:10.533Z,101920.06
2023-04-09T00:26:32.759Z,101923.50
2023-04-09T00:26:54.408Z,101921.69
2023-04-09T00:27:17.028Z,101920.78
2023-04-09T00:27:40.288Z,101924.34
2023-04-09T00:28:02.017Z,101923.47
2023-04-09T00:28:23.731Z,101919.97
2023-04-09T00:28:46.662Z,101915.53
2023-04-09T00:29:08.321Z,101918.22
2023-04-09T00:29:30.062Z,101920.88
2023-04-09T00:29:53.719Z,101927.97
2023-04-09T00:30:15.796Z,101927.97
2023-04-09T00:30:38.426Z,101906.78
2023-04-09T00:31:00.357Z,101927.09
2023-04-09T00:31:22.005Z,101923.56
2023-04-09T00:31:43.598Z,101915.56
2023-04-09T00:32:06.862Z,101916.44
2023-04-09T00:32:28.513Z,101918.22
2023-04-09T00:32:50.694Z,101921.75
2023-04-09T00:33:12.527Z,101909.41
2023-04-09T00:33:35.310Z,101913.69
2023-04-09T00:33:57.388Z,101910.25
2023-04-09T00:34:19.096Z,101916.31
2023-04-09T00:34:40.951Z,101919.91
2023-04-09T00:35:02.536Z,101895.31
2023-04-09T00:35:25.969Z,101899.75
2023-04-09T00:35:47.716Z,101918.13
2023-04-09T00:36:09.457Z,101918.13
2023-04-09T00:36:32.221Z,101919.00
2023-04-09T00:37:02.531Z,101921.66
2023-04-09T00:37:24.392Z,101917.19
2023-04-09T00:37:46.228Z,101917.19
2023-04-09T00:38:08.901Z,101912.88
2023-04-09T00:38:30.860Z,101916.44
2023-04-09T00:38:56.157Z,101917.38
2023-04-09T00:39:19.091Z,101916.50
2023-04-09T00:39:41.689Z,101917.44
2023-04-09T00:40:04.143Z,101909.53
2023-04-09T00:40:26.087Z,101917.44
2023-04-09T00:40:49.400Z,101911.22
2023-04-09T00:41:11.269Z,101918.31
2023-04-09T00:41:34.237Z,101917.50
2023-04-09T00:42:01.440Z,101920.97
2023-04-09T00:42:23.661Z,101917.50
2023-04-09T00:42:48.020Z,101921.03
2023-04-09T00:43:10.014Z,101913.94
2023-04-09T00:43:31.665Z,101925.41
2023-04-09T00:43:56.077Z,101920.22
2023-04-09T00:44:18.671Z,101918.47
2023-04-09T00:44:40.494Z,101924.59
2023-04-09T00:45:02.178Z,101906.13
2023-04-09T00:45:24.040Z,101918.38
2023-04-09T00:45:46.850Z,101913.06
2023-04-09T00:46:08.679Z,101921.94
2023-04-09T00:46:31.438Z,101921.94
2023-04-09T00:46:54.255Z,101921.97
2023-04-09T00:47:15.931Z,101918.47
2023-04-09T00:47:38.703Z,101907.00
2023-04-09T00:48:00.853Z,101915.72
2023-04-09T00:48:22.867Z,101914.06
2023-04-09T00:48:44.769Z,101915.72
2023-04-09T00:49:07.670Z,101921.06
2023-04-09T00:49:29.946Z,101920.13
2023-04-09T00:49:51.622Z,101917.44
2023-04-09T00:50:13.375Z,101919.25
2023-04-09T00:50:36.078Z,101888.41
2023-04-09T00:50:57.780Z,101923.69
2023-04-09T00:51:19.421Z,101918.38
2023-04-09T00:51:41.097Z,101918.44
2023-04-09T00:52:04.020Z,101920.22
2023-04-09T00:52:26.031Z,101910.50
2023-04-09T00:52:47.701Z,101914.94
2023-04-09T00:53:12.801Z,101910.66
2023-04-09T00:53:34.797Z,101916.75
2023-04-09T00:53:56.589Z,101922.97
2023-04-09T00:54:18.772Z,101901.78
2023-04-09T00:54:41.323Z,101918.53
2023-04-09T00:55:05.407Z,101912.41
2023-04-09T00:55:27.081Z,101917.63
2023-04-09T00:55:49.007Z,101906.13
2023-04-09T00:56:13.284Z,101912.34
2023-04-09T00:56:36.984Z,101909.72
2023-04-09T00:56:59.549Z,101909.75
2023-04-09T00:57:21.686Z,101906.22
2023-04-09T00:57:43.415Z,101915.91
2023-04-09T00:58:07.582Z,101915.94
2023-04-09T00:58:29.370Z,101915.00
2023-04-09T00:58:51.351Z,101913.22
2023-04-09T00:59:13.477Z,101915.09
2023-04-09T00:59:35.264Z,101913.31
2023-04-09T00:59:57.984Z,101916.88
2023-04-09T01:00:19.709Z,101910.66
2023-04-09T01:00:41.442Z,101916.03
2023-04-09T01:01:03.423Z,101920.41
2023-04-09T01:01:26.197Z,101914.28
2023-04-09T01:01:47.946Z,101912.47
2023-04-09T01:02:09.927Z,101910.72
2023-04-09T01:02:31.741Z,101923.06
2023-04-09T01:02:56.168Z,101914.19
2023-04-09T01:03:19.083Z,101920.47
2023-04-09T01:03:41.161Z,101914.28
2023-04-09T01:04:03.332Z,101917.81
2023-04-09T01:04:25.565Z,101917.81
2023-04-09T01:04:49.780Z,101912.44
2023-04-09T01:05:13.042Z,101917.75
2023-04-09T01:05:41.338Z,101918.63
2023-04-09T01:06:11.037Z,101920.41
2023-04-09T01:06:43.674Z,101915.09
2023-04-09T01:07:11.879Z,101917.75
2023-04-09T01:07:49.066Z,101913.31
2023-04-09T01:08:20.321Z,101915.97
2023-04-09T01:08:49.582Z,101916.88
2023-04-09T01:09:18.501Z,101916.03
2023-04-09T01:09:43.786Z,101919.50
2023-04-09T01:10:17.897Z,101916.03
2023-04-09T01:10:44.569Z,101915.09
2023-04-09T01:11:28.865Z,101915.09
2023-04-09T01:12:03.360Z,101912.47
2023-04-09T01:12:33.211Z,101917.75
2023-04-09T01:13:04.235Z,101909.81
2023-04-09T01:13:32.454Z,101906.31
2023-04-09T01:14:05.209Z,101913.31
2023-04-09T01:14:32.908Z,101905.34
2023-04-09T01:15:06.050Z,101916.91
2023-04-09T01:15:33.930Z,101891.28
2023-04-09T01:15:58.462Z,101902.81
2023-04-09T01:16:23.889Z,101906.38
2023-04-09T01:16:53.875Z,101908.06
2023-04-09T01:17:21.978Z,101908.06
2023-04-09T01:17:50.584Z,101909.84
2023-04-09T01:18:30.229Z,101904.53
2023-04-09T01:18:58.189Z,101904.53
2023-04-09T01:19:36.033Z,101909.84
2023-04-09T01:20:01.734Z,101910.72
2023-04-09T01:20:33.726Z,101908.94
2023-04-09T01:20:59.323Z,101908.06
2023-04-09T01:21:26.613Z,101908.94
2023-04-09T01:21:49.207Z,101896.59
2023-04-09T01:22:31.756Z,101908.00
2023-04-09T01:22:59.667Z,101894.78
2023-04-09T01:23:34.756Z,101902.75
2023-04-09T01:24:10.781Z,101886.09
2023-04-09T01:24:42.826Z,101894.88
2023-04-09T01:25:17.298Z,101904.53
2023-04-09T01:25:46.585Z,101903.72
2023-04-09T01:26:17.142Z,101905.47
2023-04-09T01:26:58.342Z,101909.03
2023-04-09T01:27:31.984Z,101908.94
2023-04-09T01:28:08.166Z,101908.06
2023-04-09T01:28:33.226Z,101908.13
2023-04-09T01:28:57.759Z,101912.56
2023-04-09T01:29:22.834Z,101909.03
2023-04-09T01:29:47.817Z,101906.38
2023-04-09T01:30:10.881Z,101906.41
2023-04-09T01:30:33.769Z,101899.41
2023-04-09T01:31:01.775Z,101907.31
2023-04-09T01:31:29.710Z,101910.03
2023-04-09T01:31:52.261Z,101900.28
2023-04-09T01:32:18.315Z,101907.38
2023-04-09T01:32:41.329Z,101910.03
2023-04-09T01:33:05.333Z,101907.38
2023-04-09T01:33:27.593Z,101907.41
2023-04-09T01:33:50.195Z,101910.97
2023-04-09T01:34:13.263Z,101910.09
2023-04-09T01:34:36.166Z,101909.16
2023-04-09T01:34:58.311Z,101907.38
2023-04-09T01:35:22.221Z,101908.28
2023-04-09T01:35:46.252Z,101910.94
2023-04-09T01:36:08.434Z,101906.50
2023-04-09T01:36:32.278Z,101900.28
2023-04-09T01:36:59.234Z,101914.44
2023-04-09T01:37:22.771Z,101910.91
2023-04-09T01:37:44.958Z,101910.94
2023-04-09T01:38:07.374Z,101902.09
2023-04-09T01:38:29.982Z,101897.69
2023-04-09T01:38:54.121Z,101912.69
2023-04-09T01:39:16.380Z,101911.81
2023-04-09T01:39:39.169Z,101907.34
2023-04-09T01:40:02.273Z,101904.78
2023-04-09T01:40:24.628Z,101913.56
2023-04-09T01:40:46.843Z,101914.47
2023-04-09T01:41:18.225Z,101909.16
2023-04-09T01:41:41.406Z,101911.78
2023-04-09T01:42:03.825Z,101910.03
2023-04-09T01:42:26.305Z,101910.88
2023-04-09T01:42:49.976Z,101902.13
2023-04-09T01:43:15.057Z,101914.44
2023-04-09T01:43:37.897Z,101910.84
2023-04-09T01:44:01.808Z,101909.06
2023-04-09T01:44:25.477Z,101907.31
2023-04-09T01:44:48.845Z,101907.38
2023-04-09T01:45:11.805Z,101913.56
2023-04-09T01:45:34.840Z,101904.72
2023-04-09T01:45:57.246Z,101911.78
2023-04-09T01:46:21.329Z,101908.19
2023-04-09T01:46:43.138Z,101905.59
2023-04-09T01:47:05.568Z,101902.09
2023-04-09T01:47:27.873Z,101907.38
2023-04-09T01:47:49.903Z,101908.25
2023-04-09T01:48:14.358Z,101908.28
2023-04-09T01:48:36.907Z,101915.38
2023-04-09T01:48:59.311Z,101904.78
2023-04-09T01:49:22.076Z,101912.78
2023-04-09T01:49:45.766Z,101910.13
2023-04-09T01:50:08.298Z,101913.72
2023-04-09T01:50:30.235Z,101911.00
2023-04-09T01:50:52.095Z,101914.53
2023-04-09T01:51:14.189Z,101910.13
2023-04-09T01:51:37.650Z,101911.88
2023-04-09T01:51:59.942Z,101914.53
2023-04-09T01:52:21.980Z,101914.53
2023-04-09T01:52:43.845Z,101914.53
2023-04-09T01:53:06.121Z,101910.13
2023-04-09T01:53:28.808Z,101917.19
2023-04-09T01:53:50.520Z,101914.53
2023-04-09T01:54:12.182Z,101916.31
2023-04-09T01:54:33.978Z,101903.97
2023-04-09T01:54:55.820Z,101910.09
2023-04-09T01:55:17.597Z,101909.16
2023-04-09T01:55:40.331Z,101910.94
2023-04-09T01:56:03.520Z,101912.69
2023-04-09T01:56:25.773Z,101915.28
2023-04-09T01:56:49.772Z,101902.94
2023-04-09T01:57:11.672Z,101913.50
2023-04-09T01:57:33.286Z,101910.84
2023-04-09T01:57:54.902Z,101902.03
2023-04-09T01:58:19.259Z,101909.94
2023-04-09T01:58:41.270Z,101905.53
2023-04-09T01:59:02.988Z,101901.13
2023-04-09T01:59:24.653Z,101909.97
2023-04-09T01:59:46.279Z,101908.19
2023-04-09T02:00:10.578Z,101916.16
2023-04-09T02:00:40.696Z,101917.06
2023-04-09T02:01:11.878Z,101906.47
2023-04-09T02:01:40.165Z,101895.94
2023-04-09T02:02:06.856Z,101905.53
2023-04-09T02:02:36.730Z,101906.47
2023-04-09T02:03:06.128Z,101911.81
2023-04-09T02:03:34.471Z,101905.66
2023-04-09T02:04:00.833Z,101907.47
2023-04-09T02:04:26.974Z,101903.00
2023-04-09T02:04:52.514Z,101911.81
2023-04-09T02:05:17.898Z,101907.38
2023-04-09T02:05:46.399Z,101910.94
2023-04-09T02:06:16.052Z,101914.53
2023-04-09T02:06:43.745Z,101911.00
2023-04-09T02:07:10.641Z,101898.59
2023-04-09T02:07:38.067Z,101900.38
2023-04-09T02:08:03.869Z,101911.00
2023-04-09T02:08:27.843Z,101911.06
2023-04-09T02:08:52.070Z,101916.31
2023-04-09T02:09:17.725Z,101911.91
2023-04-09T02:09:42.822Z,101910.13
2023-04-09T02:10:06.806Z,101901.31
2023-04-09T02:10:31.683Z,101909.22
2023-04-09T02:10:58.084Z,101888.97
2023-04-09T02:11:24.549Z,101910.91
2023-04-09T02:11:48.582Z,101908.25
2023-04-09T02:12:13.318Z,101902.06
2023-04-09T02:12:38.526Z,101909.16
2023-04-09T02:13:03.200Z,101903.00
2023-04-09T02:13:28.607Z,101903.81
2023-04-09T02:13:54.348Z,101910.03
2023-04-09T02:14:16.517Z,101901.16
2023-04-09T02:14:42.025Z,101910.09
2023-04-09T02:15:06.039Z,101909.16
2023-04-09T02:15:29.195Z,101910.97
2023-04-09T02:15:51.767Z,101903.00
2023-04-09T02:16:16.753Z,101903.09
2023-04-09T02:16:39.294Z,101901.25
2023-04-09T02:17:02.141Z,101882.81
2023-04-09T02:17:23.848Z,101904.78
2023-04-09T02:17:45.660Z,101905.66
2023-04-09T02:18:22.016Z,101908.47
2023-04-09T02:18:44.121Z,101905.81
2023-04-09T02:19:06.118Z,101866.25
2023-04-09T02:19:39.095Z,101893.50
2023-04-09T02:20:01.657Z,101908.47
2023-04-09T02:20:24.657Z,101901.41
2023-04-09T02:20:46.265Z,101898.75
2023-04-09T02:21:07.966Z,101900.53
2023-04-09T02:21:31.644Z,101902.28
2023-04-09T02:21:53.348Z,101899.56
2023-04-09T02:22:16.056Z,101896.91
2023-04-09T02:22:39.070Z,101898.66
2023-04-09T02:23:01.669Z,101897.78
2023-04-09T02:23:24.023Z,101869.66
2023-04-09T02:23:45.620Z,101897.78
2023-04-09T02:24:07.481Z,101890.75
2023-04-09T02:24:30.572Z,101893.28
2023-04-09T02:24:52.149Z,101895.06
2023-04-09T02:25:14.280Z,101888.94
2023-04-09T02:25:37.038Z,101898.66
2023-04-09T02:25:59.241Z,101899.63
2023-04-09T02:26:21.423Z,101896.09
2023-04-09T02:26:43.028Z,101897.88
2023-04-09T02:27:08.629Z,101866.25
2023-04-09T02:27:30.499Z,101890.84
2023-04-09T02:27:52.101Z,101896.09
2023-04-09T02:28:14.780Z,101895.19
2023-04-09T02:28:38.310Z,101867.97
2023-04-09T02:28:59.955Z,101897.03
2023-04-09T02:29:21.885Z,101889.13
2023-04-09T02:29:43.754Z,101894.38
2023-04-09T02:30:09.130Z,101896.16
2023-04-09T02:30:30.843Z,101896.09
2023-04-09T02:30:52.469Z,101901.41
2023-04-09T02:31:14.204Z,101893.44
2023-04-09T02:31:36.978Z,101895.19
2023-04-09T02:31:58.701Z,101898.69
2023-04-09T02:32:20.463Z,101904.00
2023-04-09T02:32:42.187Z,101891.66
2023-04-09T02:33:04.253Z,101889.88
2023-04-09T02:33:26.960Z,101896.03
2023-04-09T02:33:48.946Z,101897.84
2023-04-09T02:34:10.803Z,101897.84
2023-04-09T02:34:32.470Z,101899.63
2023-04-09T02:34:57.680Z,101898.75
2023-04-09T02:35:19.337Z,101898.75
2023-04-09T02:35:41.008Z,101897.03
2023-04-09T02:36:02.996Z,101893.44
2023-04-09T02:36:26.494Z,101893.44
2023-04-09T02:36:48.419Z,101889.06
2023-04-09T02:37:10.205Z,101900.56
2023-04-09T02:37:32.006Z,101899.69
2023-04-09T02:37:54.693Z,101896.16
2023-04-09T02:38:16.348Z,101902.34
2023-04-09T02:38:37.997Z,101890.91
2023-04-09T02:38:59.562Z,101896.16
2023-04-09T02:39:22.143Z,101895.25
2023-04-09T02:39:43.987Z,101896.16
2023-04-09T02:40:07.005Z,101900.56
2023-04-09T02:40:29.623Z,101896.09
2023-04-09T02:40:51.377Z,101898.75
2023-04-09T02:41:13.039Z,101894.38
2023-04-09T02:41:34.691Z,101898.75
2023-04-09T02:41:57.753Z,101892.56
2023-04-09T02:42:21.757Z,101889.94
2023-04-09T02:42:43.531Z,101896.13
2023-04-09T02:43:05.278Z,101890.84
2023-04-09T02:43:28.000Z,101896.13
2023-04-09T02:43:50.984Z,101896.16
2023-04-09T02:44:12.716Z,101889.06
2023-04-09T02:44:34.590Z,101877.69
2023-04-09T02:44:57.578Z,101893.47
2023-04-09T02:45:19.778Z,101889.09
2023-04-09T02:45:41.569Z,101879.44
2023-04-09T02:46:03.501Z,101893.50
2023-04-09T02:46:27.042Z,101899.72
2023-04-09T02:46:49.173Z,101895.28
2023-04-09T02:47:11.183Z,101891.72
2023-04-09T02:47:34.093Z,101891.75
2023-04-09T02:47:56.791Z,101894.47
2023-04-09T02:48:18.474Z,101893.56
2023-04-09T02:48:40.174Z,101890.91
2023-04-09T02:49:01.978Z,101891.72
2023-04-09T02:49:24.978Z,101881.25
2023-04-09T02:49:46.624Z,101884.72
2023-04-09T02:50:08.811Z,101891.94
2023-04-09T02:50:33.763Z,101890.09
2023-04-09T02:50:56.456Z,101882.19
2023-04-09T02:51:18.286Z,101882.06
2023-04-09T02:51:39.943Z,101893.56
2023-04-09T02:52:01.661Z,101894.38
2023-04-09T02:52:25.170Z,101886.41
2023-04-09T02:52:47.758Z,101886.41
2023-04-09T02:53:10.915Z,101890.78
2023-04-09T02:53:32.534Z,101889.06
2023-04-09T02:53:55.235Z,101889.88
2023-04-09T02:54:16.922Z,101889.00
2023-04-09T02:54:38.675Z,101888.13
2023-04-09T02:55:00.347Z,101875.78
2023-04-09T02:55:23.383Z,101882.84
2023-04-09T02:55:45.028Z,101885.53
2023-04-09T02:56:06.753Z,101894.41
2023-04-09T02:56:29.725Z,101888.19
2023-04-09T02:56:52.380Z,101888.19
2023-04-09T02:57:14.061Z,101891.72
2023-04-09T02:57:36.338Z,101883.75
2023-04-09T02:57:58.045Z,101879.25
2023-04-09T02:58:20.713Z,101886.38
2023-04-09T02:58:42.328Z,101888.16
2023-04-09T02:59:05.337Z,101884.66
2023-04-09T02:59:27.067Z,101886.38
2023-04-09T02:59:49.733Z,101887.22
2023-04-09T03:00:12.470Z,101889.88
2023-04-09T03:00:34.241Z,101888.09
2023-04-09T03:00:56.163Z,101884.50
2023-04-09T03:01:18.827Z,101883.69
2023-04-09T03:01:40.666Z,101888.06
2023-04-09T03:02:02.609Z,101882.78
2023-04-09T03:02:24.520Z,101884.53
2023-04-09T03:02:47.321Z,101889.00
2023-04-09T03:03:09.239Z,101878.34
2023-04-09T03:03:31.626Z,101889.88
2023-04-09T03:03:53.407Z,101884.56
2023-04-09T03:04:17.503Z,101885.44
2023-04-09T03:04:39.493Z,101881.06
2023-04-09T03:05:01.288Z,101881.16
2023-04-09T03:05:23.779Z,101879.41
2023-04-09T03:05:46.432Z,101878.63
2023-04-09T03:06:08.159Z,101881.19
2023-04-09T03:06:29.821Z,101869.78
2023-04-09T03:06:51.654Z,101872.41
2023-04-09T03:07:13.358Z,101866.25
2023-04-09T03:07:36.014Z,101885.63
2023-04-09T03:07:57.731Z,101868.91
2023-04-09T03:08:19.450Z,101880.34
2023-04-09T03:08:42.129Z,101877.69
2023-04-09T03:09:04.002Z,101877.84
2023-04-09T03:09:25.673Z,101871.66
2023-04-09T03:09:47.272Z,101876.16
2023-04-09T03:10:10.852Z,101879.69
2023-04-09T03:10:32.557Z,101881.44
2023-04-09T03:10:54.217Z,101876.09
2023-04-09T03:11:15.978Z,101876.09
2023-04-09T03:11:38.601Z,101880.56
2023-04-09T03:12:01.862Z,101876.16
2023-04-09T03:12:23.541Z,101882.31
2023-04-09T03:12:45.192Z,101865.50
2023-04-09T03:13:07.781Z,101878.72
2023-04-09T03:13:29.424Z,101875.19
2023-04-09T03:13:51.079Z,101871.72
2023-04-09T03:14:14.116Z,101879.56
2023-04-09T03:14:35.758Z,101876.94
2023-04-09T03:14:58.347Z,101868.09
2023-04-09T03:15:19.973Z,101855.81
2023-04-09T03:15:41.829Z,101873.34
2023-04-09T03:16:03.875Z,101870.69
2023-04-09T03:16:26.734Z,101882.22
2023-04-09T03:16:48.340Z,101874.25
2023-04-09T03:17:10.031Z,101871.59
2023-04-09T03:17:32.160Z,101859.38
2023-04-09T03:17:54.921Z,101871.69
2023-04-09T03:18:16.625Z,101869.03
2023-04-09T03:18:38.301Z,101881.41
2023-04-09T03:19:00.446Z,101884.03
2023-04-09T03:19:23.166Z,101868.16
2023-04-09T03:19:44.921Z,101873.59
2023-04-09T03:20:07.605Z,101870.91
2023-04-09T03:20:32.521Z,101873.50
2023-04-09T03:20:55.037Z,101872.66
2023-04-09T03:21:16.916Z,101870.97
2023-04-09T03:21:43.163Z,101875.31
2023-04-09T03:22:05.454Z,101871.78
2023-04-09T03:22:28.091Z,101873.53
2023-04-09T03:22:50.339Z,101853.34
2023-04-09T03:23:26.849Z,101870.06
2023-04-09T03:23:49.707Z,101871.88
2023-04-09T03:24:11.723Z,101869.22
2023-04-09T03:24:33.791Z,101866.53
2023-04-09T03:24:58.517Z,101869.25
2023-04-09T03:25:21.163Z,101868.38
2023-04-09T03:25:46.455Z,101856.03
2023-04-09T03:26:11.333Z,101841.06
2023-04-09T03:26:40.740Z,101868.31
2023-04-09T03:27:02.498Z,101867.50
2023-04-09T03:27:25.592Z,101865.72
2023-04-09T03:27:50.162Z,101864.81
2023-04-09T03:28:22.073Z,101866.56
2023-04-09T03:28:47.536Z,101865.69
2023-04-09T03:29:09.107Z,101858.63
2023-04-09T03:29:32.226Z,101854.22
2023-04-09T03:29:55.995Z,101865.72
2023-04-09T03:30:21.044Z,101871.00
2023-04-09T03:30:42.802Z,101863.03
2023-04-09T03:31:04.749Z,101864.84
2023-04-09T03:31:30.957Z,101818.31
2023-04-09T03:31:53.778Z,101866.56
2023-04-09T03:32:16.817Z,101870.16
2023-04-09T03:32:40.295Z,101853.38
2023-04-09T03:33:03.425Z,101871.00
2023-04-09T03:33:29.387Z,101869.22
2023-04-09T03:33:53.140Z,101864.81
2023-04-09T03:34:14.915Z,101831.44
2023-04-09T03:34:36.579Z,101861.31
2023-04-09T03:34:59.223Z,101866.59
2023-04-09T03:35:21.303Z,101867.50
2023-04-09T03:35:43.303Z,101856.03
2023-04-09T03:36:06.516Z,101866.59
2023-04-09T03:36:50.090Z,101861.34
2023-04-09T03:37:18.681Z,101865.72
2023-04-09T03:37:40.607Z,101867.53
2023-04-09T03:38:08.975Z,101865.84
2023-04-09T03:38:30.756Z,101858.75
2023-04-09T03:38:55.761Z,101854.47
2023-04-09T03:39:40.792Z,101868.50
2023-04-09T03:40:03.279Z,101862.38
2023-04-09T03:40:27.291Z,101863.31
2023-04-09T03:40:48.955Z,101873.81
2023-04-09T03:41:10.629Z,101866.78
2023-04-09T03:41:33.112Z,101872.03
2023-04-09T03:41:59.711Z,101865.88
2023-04-09T03:42:25.197Z,101858.88
2023-04-09T03:42:46.914Z,101864.16
2023-04-09T03:43:10.724Z,101864.16
2023-04-09T03:43:36.572Z,101861.47
2023-04-09T03:43:58.801Z,101866.81
2023-04-09T03:44:25.249Z,101861.50
2023-04-09T03:44:56.383Z,101841.31
2023-04-09T03:45:29.466Z,101866.78
2023-04-09T03:46:11.125Z,101839.50
2023-04-09T03:46:32.972Z,101861.47
2023-04-09T03:46:57.001Z,101852.72
2023-04-09T03:47:19.617Z,101866.81
2023-04-09T03:47:41.580Z,101863.31
2023-04-09T03:48:04.204Z,101865.97
2023-04-09T03:48:27.348Z,101860.63
2023-04-09T03:48:51.685Z,101869.44
2023-04-09T03:49:14.506Z,101861.47
2023-04-09T03:49:39.147Z,101868.56
2023-04-09T03:50:12.780Z,101862.38
2023-04-09T03:50:45.302Z,101864.16
2023-04-09T03:51:12.855Z,101865.03
2023-04-09T03:51:35.605Z,101862.38
2023-04-09T03:51:57.563Z,101868.56
2023-04-09T03:52:24.852Z,101864.13
2023-04-09T03:52:54.867Z,101859.72
2023-04-09T03:53:16.834Z,101865.03
2023-04-09T03:53:40.304Z,101827.22
2023-04-09T03:54:03.120Z,101861.44
2023-04-09T03:54:24.833Z,101861.44
2023-04-09T03:54:47.393Z,101862.38
2023-04-09T03:55:13.883Z,101859.72
2023-04-09T03:55:38.430Z,101867.69
2023-04-09T03:56:06.087Z,101864.13
2023-04-09T03:56:29.416Z,101863.25
2023-04-09T03:56:51.943Z,101860.59
2023-04-09T03:57:19.201Z,101858.84
2023-04-09T03:57:43.613Z,101858.84
2023-04-09T03:58:09.500Z,101867.75
2023-04-09T03:58:32.478Z,101814.09
2023-04-09T03:58:56.065Z,101862.44
2023-04-09T03:59:26.380Z,101859.78
2023-04-09T03:59:48.356Z,101851.00
2023-04-09T04:00:14.904Z,101855.44
2023-04-09T04:00:46.714Z,101860.69
2023-04-09T04:01:25.798Z,101860.72
2023-04-09T04:01:52.859Z,101861.66
2023-04-09T04:02:14.759Z,101842.34
2023-04-09T04:02:41.979Z,101863.44
2023-04-09T04:03:05.908Z,101855.53
2023-04-09T04:03:54.211Z,101861.72
2023-04-09T04:04:23.604Z,101865.28
2023-04-09T04:04:50.839Z,101863.50
2023-04-09T04:05:12.592Z,101862.63
2023-04-09T04:05:40.054Z,101864.38
2023-04-09T04:06:04.585Z,101854.66
2023-04-09T04:06:38.157Z,101832.75
2023-04-09T04:07:20.235Z,101859.97
2023-04-09T04:07:46.587Z,101859.97
2023-04-09T04:08:14.239Z,101865.28
2023-04-09T04:08:35.934Z,101862.69
2023-04-09T04:08:57.680Z,101860.03
2023-04-09T04:09:28.209Z,101854.78
2023-04-09T04:09:54.578Z,101859.16
2023-04-09T04:10:16.465Z,101859.13
2023-04-09T04:10:40.951Z,101855.66
2023-04-09T04:11:04.899Z,101857.44
2023-04-09T04:11:28.101Z,101860.09
2023-04-09T04:11:50.316Z,101863.59
2023-04-09T04:12:13.477Z,101855.66
2023-04-09T04:12:50.260Z,101859.22
2023-04-09T04:13:24.302Z,101863.56
2023-04-09T04:13:51.007Z,101850.38
2023-04-09T04:14:12.670Z,101867.13
2023-04-09T04:14:37.768Z,101860.03
2023-04-09T04:15:10.132Z,101866.22
2023-04-09T04:15:41.228Z,101859.22
2023-04-09T04:16:07.446Z,101868.06
2023-04-09T04:16:31.023Z,101864.53
2023-04-09T04:16:52.884Z,101863.63
2023-04-09T04:17:17.543Z,101856.56
2023-04-09T04:17:39.400Z,101863.63
2023-04-09T04:18:09.365Z,101864.50
2023-04-09T04:18:38.607Z,101870.69
2023-04-09T04:19:00.689Z,101867.16
2023-04-09T04:19:24.607Z,101864.47
2023-04-09T04:19:46.995Z,101870.66
2023-04-09T04:20:10.108Z,101857.44
2023-04-09T04:20:42.494Z,101862.75
2023-04-09T04:21:13.997Z,101859.22
2023-04-09T04:21:39.069Z,101862.72
2023-04-09T04:22:01.550Z,101860.94
2023-04-09T04:22:26.109Z,101860.94
2023-04-09T04:22:50.322Z,101861.81
2023-04-09T04:23:13.238Z,101860.03
2023-04-09T04:23:47.399Z,101831.03
2023-04-09T04:24:14.676Z,101859.22
2023-04-09T04:24:36.474Z,101860.09
2023-04-09T04:24:58.526Z,101852.16
2023-04-09T04:25:21.391Z,101857.44
2023-04-09T04:25:44.664Z,101853.03
2023-04-09T04:26:10.680Z,101853.03
2023-04-09T04:26:33.239Z,101865.41
2023-04-09T04:26:54.993Z,101856.56
2023-04-09T04:27:18.206Z,101861.88
2023-04-09T04:27:41.746Z,101851.25
2023-04-09T04:28:14.148Z,101858.34
2023-04-09T04:28:37.314Z,101854.78
2023-04-09T04:29:01.272Z,101849.47
2023-04-09T04:29:37.804Z,101850.44
2023-04-09T04:30:09.775Z,101858.34
2023-04-09T04:30:42.716Z,101855.75
2023-04-09T04:31:07.963Z,101860.16
2023-04-09T04:31:29.697Z,101858.41
2023-04-09T04:31:54.365Z,101854.88
2023-04-09T04:32:18.865Z,101854.91
2023-04-09T04:32:40.766Z,101856.69
2023-04-09T04:33:05.961Z,101840.81
2023-04-09T04:33:36.254Z,101860.19
2023-04-09T04:33:59.393Z,101854.97
2023-04-09T04:34:21.239Z,101833.81
2023-04-09T04:34:50.481Z,101859.28
2023-04-09T04:35:22.559Z,101852.31
2023-04-09T04:35:48.421Z,101836.53